createdAt,value
2017-06-17T00:00:39.091Z,3.93
2017-06-17T00:03:05.276Z,3.77
2017-06-17T00:05:31.475Z,2.83
2017-06-17T00:07:57.670Z,6.60
2017-06-17T00:10:24.011Z,7.77
2017-06-17T00:12:50.379Z,8.30
2017-06-17T00:15:17.309Z,7.03
2017-06-17T00:17:43.504Z,4.67
2017-06-17T00:20:09.718Z,6.50
2017-06-17T00:22:35.895Z,5.30
2017-06-17T00:25:02.107Z,5.10
2017-06-17T00:27:29.065Z,4.10
2017-06-17T00:29:56.087Z,4.33
2017-06-17T00:32:22.288Z,7.07
2017-06-17T00:34:48.503Z,5.53
2017-06-17T00:37:14.665Z,4.50
2017-06-17T00:39:43.482Z,3.07
2017-06-17T00:42:10.915Z,4.90
2017-06-17T00:44:37.131Z,5.10
2017-06-17T00:47:03.374Z,3.77
2017-06-17T00:49:31.187Z,3.20
2017-06-17T00:51:58.095Z,4.20
2017-06-17T00:54:24.587Z,6.60
2017-06-17T00:56:50.807Z,8.93
2017-06-17T00:59:17.898Z,4.90
2017-06-17T01:01:44.174Z,5.17
2017-06-17T01:04:11.242Z,5.47
2017-06-17T01:06:37.433Z,4.13
2017-06-17T01:09:03.652Z,8.60
2017-06-17T01:11:29.921Z,5.40
2017-06-17T01:13:57.422Z,5.40
2017-06-17T01:16:23.585Z,3.60
2017-06-17T01:18:50.118Z,4.00
2017-06-17T01:21:16.298Z,6.30
2017-06-17T01:23:42.549Z,6.47
2017-06-17T01:26:08.846Z,7.83
2017-06-17T01:28:35.115Z,4.90
2017-06-17T01:31:01.289Z,5.80
2017-06-17T01:33:28.347Z,3.43
2017-06-17T01:35:54.727Z,4.23
2017-06-17T01:38:20.909Z,3.23
2017-06-17T01:40:48.299Z,7.50
2017-06-17T01:43:14.454Z,5.07
2017-06-17T01:45:40.663Z,5.00
2017-06-17T01:48:06.879Z,4.60
2017-06-17T01:50:33.063Z,4.53
2017-06-17T01:53:00.050Z,5.70
2017-06-17T01:55:26.250Z,9.40
2017-06-17T01:57:52.522Z,5.67
2017-06-17T02:00:18.698Z,6.17
2017-06-17T02:02:45.638Z,3.20
2017-06-17T02:05:12.544Z,7.43
2017-06-17T02:07:38.685Z,6.77
2017-06-17T02:10:04.902Z,5.30
2017-06-17T02:12:31.079Z,5.10
2017-06-17T02:14:57.226Z,4.10
2017-06-17T02:17:23.454Z,2.50
2017-06-17T02:19:49.630Z,6.87
2017-06-17T02:22:15.798Z,6.37
2017-06-17T02:24:41.978Z,3.00
2017-06-17T02:27:08.183Z,6.60
2017-06-17T02:29:34.387Z,8.47
2017-06-17T02:32:00.567Z,4.70
2017-06-17T02:34:26.740Z,3.23
2017-06-17T02:36:52.953Z,5.67
2017-06-17T02:39:19.836Z,9.60
2017-06-17T02:41:45.986Z,5.07
2017-06-17T02:44:12.162Z,7.50
2017-06-17T02:46:38.352Z,5.40
2017-06-17T02:49:04.563Z,6.87
2017-06-17T02:51:30.736Z,5.63
2017-06-17T02:53:56.907Z,7.80
2017-06-17T02:56:23.085Z,3.90
2017-06-17T02:58:50.023Z,4.40
2017-06-17T03:01:16.927Z,2.77
2017-06-17T03:03:43.105Z,5.63
2017-06-17T03:06:10.042Z,5.53
2017-06-17T03:08:36.199Z,5.30
2017-06-17T03:11:02.411Z,4.80
2017-06-17T03:13:29.363Z,3.67
2017-06-17T03:15:56.281Z,8.77
2017-06-17T03:18:22.429Z,5.20
2017-06-17T03:20:49.350Z,4.30
2017-06-17T03:23:15.555Z,8.13
2017-06-17T03:25:41.701Z,3.63
2017-06-17T03:28:07.846Z,5.80
2017-06-17T03:30:34.051Z,4.33
2017-06-17T03:33:00.203Z,4.90
2017-06-17T03:35:26.397Z,5.90
2017-06-17T03:37:52.546Z,4.50
2017-06-17T03:40:18.707Z,4.40
2017-06-17T03:42:44.910Z,3.90
2017-06-17T03:45:11.459Z,3.63
2017-06-17T03:47:38.382Z,4.83
2017-06-17T03:50:05.583Z,6.43
2017-06-17T03:52:31.742Z,5.60
2017-06-17T03:54:57.897Z,3.87
2017-06-17T03:57:24.057Z,4.97
2017-06-17T03:59:50.254Z,3.10
2017-06-17T04:02:16.446Z,6.13
2017-06-17T04:04:42.627Z,4.53
2017-06-17T04:07:09.859Z,3.90
2017-06-17T04:09:36.088Z,4.43
2017-06-17T04:12:02.258Z,4.50
2017-06-17T04:14:28.462Z,4.80
2017-06-17T04:16:55.347Z,2.67
2017-06-17T04:19:21.549Z,7.90
2017-06-17T04:21:47.736Z,4.43
2017-06-17T04:24:14.651Z,3.33
2017-06-17T04:26:40.846Z,7.13
2017-06-17T04:29:07.063Z,5.07
2017-06-17T04:31:33.968Z,5.40
2017-06-17T04:34:00.522Z,5.00
2017-06-17T04:36:26.696Z,6.10
2017-06-17T04:38:52.930Z,5.00
2017-06-17T04:41:19.163Z,6.90
2017-06-17T04:43:45.342Z,4.23
2017-06-17T04:46:11.535Z,7.43
2017-06-17T04:48:37.702Z,7.57
2017-06-17T04:51:04.602Z,5.33
2017-06-17T04:53:30.786Z,8.20
2017-06-17T04:55:57.698Z,6.93
2017-06-17T04:58:23.895Z,4.30
2017-06-17T05:00:50.110Z,4.70
2017-06-17T05:03:16.245Z,7.60
2017-06-17T05:06:00.433Z,8.23
2017-06-17T05:08:27.010Z,5.43
2017-06-17T05:10:53.919Z,9.03
2017-06-17T05:13:20.115Z,6.83
2017-06-17T05:15:46.245Z,8.20
2017-06-17T05:18:12.423Z,7.47
2017-06-17T05:20:39.371Z,8.03
2017-06-17T05:23:06.256Z,5.30
2017-06-17T05:25:32.435Z,8.90
2017-06-17T05:27:58.622Z,6.93
2017-06-17T05:30:24.814Z,6.23
2017-06-17T05:32:51.715Z,5.93
2017-06-17T05:35:17.961Z,7.80
2017-06-17T05:37:44.140Z,4.63
2017-06-17T05:40:10.294Z,8.87
2017-06-17T05:42:36.495Z,7.57
2017-06-17T05:45:02.664Z,4.17
2017-06-17T05:47:28.813Z,8.83
2017-06-17T05:49:55.737Z,5.93
2017-06-17T05:52:21.930Z,7.43
2017-06-17T05:54:48.110Z,4.30
2017-06-17T05:57:15.052Z,5.67
2017-06-17T05:59:41.227Z,9.43
2017-06-17T06:02:07.445Z,8.30
2017-06-17T06:04:33.645Z,6.33
2017-06-17T06:07:00.570Z,6.23
2017-06-17T06:09:26.757Z,7.37
2017-06-17T06:11:52.950Z,4.47
2017-06-17T06:14:19.869Z,12.03
2017-06-17T06:16:46.071Z,10.37
2017-06-17T06:19:12.247Z,5.17
2017-06-17T06:21:39.182Z,7.67
2017-06-17T06:24:05.389Z,9.30
2017-06-17T06:26:31.535Z,4.43
2017-06-17T06:28:57.679Z,7.90
2017-06-17T06:31:24.590Z,8.00
2017-06-17T06:33:50.780Z,4.50
2017-06-17T06:36:16.974Z,11.53
2017-06-17T06:38:43.924Z,8.57
2017-06-17T06:41:10.862Z,6.97
2017-06-17T06:43:37.063Z,7.27
2017-06-17T06:46:03.234Z,4.40
2017-06-17T06:48:30.146Z,7.87
2017-06-17T06:50:56.379Z,7.13
2017-06-17T06:53:22.525Z,9.80
2017-06-17T06:55:49.500Z,9.60
2017-06-17T06:58:15.667Z,5.13
2017-06-17T07:00:41.830Z,5.80
2017-06-17T07:03:08.729Z,6.00
2017-06-17T07:05:34.890Z,5.20
2017-06-17T07:08:01.093Z,6.70
2017-06-17T07:10:27.285Z,10.80
2017-06-17T07:12:53.451Z,5.17
2017-06-17T07:15:19.654Z,6.17
2017-06-17T07:17:45.850Z,4.30
2017-06-17T07:20:12.822Z,4.83
2017-06-17T07:22:38.966Z,6.40
2017-06-17T07:25:05.156Z,13.13
2017-06-17T07:27:32.121Z,5.97
2017-06-17T07:29:58.318Z,9.57
2017-06-17T07:32:25.323Z,4.47
2017-06-17T07:34:51.505Z,6.13
2017-06-17T07:37:18.432Z,5.37
2017-06-17T07:39:44.616Z,7.80
2017-06-17T07:42:10.807Z,6.30
2017-06-17T07:44:36.993Z,4.83
2017-06-17T07:47:03.206Z,6.70
2017-06-17T07:49:29.384Z,5.77
2017-06-17T07:51:56.327Z,5.20
2017-06-17T07:54:23.264Z,5.20
2017-06-17T07:56:50.196Z,7.23
2017-06-17T07:59:16.399Z,4.40
2017-06-17T08:01:42.580Z,6.53
2017-06-17T08:04:09.540Z,5.77
2017-06-17T08:06:35.726Z,4.03
2017-06-17T08:09:01.931Z,6.30
2017-06-17T08:11:28.148Z,8.03
2017-06-17T08:13:54.321Z,8.20
2017-06-17T08:16:20.491Z,3.57
2017-06-17T08:18:46.711Z,4.10
2017-06-17T08:21:12.928Z,6.93
2017-06-17T08:23:39.828Z,5.20
2017-06-17T08:26:06.024Z,6.47
2017-06-17T08:28:32.218Z,8.57
2017-06-17T08:30:59.147Z,10.50
2017-06-17T08:33:25.355Z,6.03
2017-06-17T08:35:51.544Z,5.40
2017-06-17T08:38:17.755Z,9.70
2017-06-17T08:40:44.666Z,6.50
2017-06-17T08:43:10.893Z,12.10
2017-06-17T08:45:38.483Z,3.90
2017-06-17T08:48:05.429Z,6.60
2017-06-17T08:50:32.436Z,3.23
2017-06-17T08:53:13.566Z,9.90
2017-06-17T08:55:40.507Z,13.40
2017-06-17T08:58:07.615Z,8.30
2017-06-17T09:00:35.252Z,9.07
2017-06-17T09:03:02.129Z,5.77
2017-06-17T09:05:28.442Z,7.50
2017-06-17T09:07:54.693Z,9.50
2017-06-17T09:10:20.917Z,7.80
2017-06-17T09:12:47.114Z,7.27
2017-06-17T09:15:13.921Z,7.60
2017-06-17T09:17:40.129Z,9.00
2017-06-17T09:20:06.395Z,7.97
2017-06-17T09:22:32.625Z,5.97
2017-06-17T09:25:00.370Z,8.07
2017-06-17T09:27:27.291Z,6.10
2017-06-17T09:29:53.481Z,6.93
2017-06-17T09:32:19.931Z,9.60
2017-06-17T09:34:50.409Z,6.03
2017-06-17T09:37:17.326Z,6.83
2017-06-17T09:39:43.519Z,8.43
2017-06-17T09:42:10.236Z,7.37
2017-06-17T09:44:36.398Z,5.00
2017-06-17T09:47:02.599Z,9.73
2017-06-17T09:49:28.958Z,5.30
2017-06-17T09:51:55.184Z,7.57
2017-06-17T09:54:21.425Z,8.10
2017-06-17T09:56:47.586Z,7.40
2017-06-17T09:59:13.782Z,7.13
2017-06-17T10:01:40.004Z,4.30
2017-06-17T10:04:06.196Z,10.80
2017-06-17T10:06:32.411Z,9.60
2017-06-17T10:09:00.444Z,5.00
2017-06-17T10:11:26.655Z,6.90
2017-06-17T10:13:52.870Z,5.57
2017-06-17T10:16:19.054Z,7.90
2017-06-17T10:18:45.221Z,7.63
2017-06-17T10:21:11.893Z,9.00
2017-06-17T10:23:38.119Z,8.73
2017-06-17T10:26:04.289Z,6.37
2017-06-17T10:28:31.226Z,8.40
2017-06-17T10:30:58.128Z,6.10
2017-06-17T10:33:24.307Z,8.70
2017-06-17T10:35:51.246Z,8.83
2017-06-17T10:38:17.429Z,15.87
2017-06-17T10:40:43.655Z,10.77
2017-06-17T10:43:09.778Z,6.93
2017-06-17T10:45:35.955Z,10.23
2017-06-17T10:48:02.163Z,9.77
2017-06-17T10:50:28.348Z,12.83
2017-06-17T10:52:54.551Z,8.63
2017-06-17T10:55:21.572Z,11.50
2017-06-17T10:57:47.783Z,12.43
2017-06-17T11:00:14.008Z,7.53
2017-06-17T11:02:40.186Z,9.40
2017-06-17T11:05:07.068Z,7.53
2017-06-17T11:07:33.336Z,7.33
2017-06-17T11:09:59.566Z,10.40
2017-06-17T11:12:25.793Z,7.37
2017-06-17T11:14:51.980Z,11.67
2017-06-17T11:17:18.160Z,6.50
2017-06-17T11:19:44.341Z,8.50
2017-06-17T11:22:10.529Z,8.70
2017-06-17T11:24:37.483Z,5.80
2017-06-17T11:27:04.437Z,5.33
2017-06-17T11:29:30.631Z,7.63
2017-06-17T11:31:56.832Z,6.93
2017-06-17T11:34:23.044Z,9.40
2017-06-17T11:36:49.239Z,6.37
2017-06-17T11:39:16.241Z,6.20
2017-06-17T11:41:43.255Z,5.83
2017-06-17T11:44:09.567Z,5.13
2017-06-17T11:46:36.565Z,9.43
2017-06-17T11:49:02.773Z,6.33
2017-06-17T11:51:28.965Z,6.90
2017-06-17T11:53:55.916Z,8.07
2017-06-17T11:56:22.111Z,5.67
2017-06-17T11:58:48.332Z,4.73
2017-06-17T12:01:14.546Z,6.13
2017-06-17T12:03:40.754Z,5.03
2017-06-17T12:06:06.954Z,8.50
2017-06-17T12:08:33.919Z,6.10
2017-06-17T12:11:00.107Z,8.87
2017-06-17T12:13:26.293Z,6.10
2017-06-17T12:15:52.519Z,4.43
2017-06-17T12:18:18.797Z,4.90
2017-06-17T12:20:45.052Z,4.90
2017-06-17T12:23:12.100Z,8.03
2017-06-17T12:25:39.072Z,4.93
2017-06-17T12:28:05.257Z,6.57
2017-06-17T12:30:31.491Z,6.00
2017-06-17T12:32:58.426Z,4.70
2017-06-17T12:35:24.593Z,6.07
2017-06-17T12:37:50.798Z,6.63
2017-06-17T12:40:17.784Z,5.00
2017-06-17T12:42:44.003Z,7.37
2017-06-17T12:45:10.199Z,6.83
2017-06-17T12:47:38.623Z,10.03
2017-06-17T12:50:05.014Z,4.00
2017-06-17T12:52:34.426Z,5.03
2017-06-17T12:55:01.376Z,4.33
2017-06-17T12:57:27.581Z,7.07
2017-06-17T12:59:53.839Z,9.33
2017-06-17T13:02:20.026Z,5.63
2017-06-17T13:04:46.224Z,7.77
2017-06-17T13:07:12.457Z,5.10
2017-06-17T13:09:45.708Z,5.80
2017-06-17T13:12:12.765Z,10.87
2017-06-17T13:14:47.235Z,8.80
2017-06-17T13:17:13.550Z,9.57
2017-06-17T13:19:39.825Z,4.90
2017-06-17T13:22:09.876Z,7.20
2017-06-17T13:24:36.260Z,5.70
2017-06-17T13:27:02.483Z,4.60
2017-06-17T13:29:28.682Z,7.33
2017-06-17T13:31:54.855Z,6.73
2017-06-17T13:34:21.062Z,5.23
2017-06-17T13:36:48.498Z,6.33
2017-06-17T13:39:14.714Z,6.03
2017-06-17T13:41:40.948Z,9.30
2017-06-17T13:44:07.159Z,7.10
2017-06-17T13:46:33.364Z,9.77
2017-06-17T13:49:00.286Z,7.73
2017-06-17T13:51:26.502Z,6.27
2017-06-17T13:53:52.680Z,10.73
2017-06-17T13:56:20.591Z,10.70
2017-06-17T13:58:47.206Z,10.53
2017-06-17T14:01:13.385Z,11.87
2017-06-17T14:03:39.570Z,12.77
2017-06-17T14:06:05.913Z,9.80
2017-06-17T14:08:32.230Z,11.93
2017-06-17T14:10:58.386Z,10.10
2017-06-17T14:13:24.654Z,12.83
2017-06-17T14:15:51.615Z,10.87
2017-06-17T14:18:17.776Z,9.10
2017-06-17T14:20:44.054Z,11.17
2017-06-17T14:23:11.003Z,12.77
2017-06-17T14:25:38.799Z,11.43
2017-06-17T14:28:05.012Z,12.90
2017-06-17T14:30:31.184Z,11.67
2017-06-17T14:32:57.399Z,11.20
2017-06-17T14:35:23.603Z,13.83
2017-06-17T14:37:49.788Z,10.17
2017-06-17T14:40:16.010Z,15.77
2017-06-17T14:42:42.206Z,10.77
2017-06-17T14:45:08.389Z,13.63
2017-06-17T14:47:35.367Z,11.00
2017-06-17T14:50:01.569Z,13.90
2017-06-17T14:52:28.518Z,12.83
2017-06-17T14:54:55.447Z,10.27
2017-06-17T14:57:21.668Z,9.87
2017-06-17T14:59:47.903Z,14.03
2017-06-17T15:02:14.074Z,10.67
2017-06-17T15:04:40.294Z,12.33
2017-06-17T15:07:06.487Z,13.57
2017-06-17T15:09:32.795Z,13.90
2017-06-17T15:11:59.010Z,13.30
2017-06-17T15:14:25.194Z,10.67
2017-06-17T15:16:52.099Z,12.80
2017-06-17T15:19:18.372Z,13.13
2017-06-17T15:22:00.213Z,10.07
2017-06-17T15:24:26.426Z,10.27
2017-06-17T15:26:52.651Z,14.90
2017-06-17T15:29:18.838Z,18.87
2017-06-17T15:31:45.046Z,11.87
2017-06-17T15:34:11.182Z,14.17
2017-06-17T15:36:37.346Z,13.83
2017-06-17T15:39:03.587Z,16.87
2017-06-17T15:41:29.792Z,9.17
2017-06-17T15:43:56.727Z,12.67
2017-06-17T15:46:22.934Z,10.97
2017-06-17T15:48:49.100Z,11.00
2017-06-17T15:51:16.062Z,12.70
2017-06-17T15:53:42.266Z,8.20
2017-06-17T15:56:09.244Z,11.27
2017-06-17T15:58:35.406Z,9.60
2017-06-17T16:01:01.621Z,10.80
2017-06-17T16:03:42.706Z,9.70
2017-06-17T16:06:08.913Z,12.87
2017-06-17T16:08:35.099Z,12.50
2017-06-17T16:11:02.098Z,12.33
2017-06-17T16:13:28.280Z,10.40
2017-06-17T16:15:55.234Z,16.60
2017-06-17T16:18:22.224Z,11.50
2017-06-17T16:20:48.447Z,12.83
2017-06-17T16:23:14.627Z,15.43
2017-06-17T16:25:41.568Z,12.40
2017-06-17T16:28:08.513Z,13.60
2017-06-17T16:30:35.458Z,17.93
2017-06-17T16:33:02.437Z,16.33
2017-06-17T16:35:28.608Z,13.00
2017-06-17T16:37:54.811Z,17.23
2017-06-17T16:40:20.991Z,14.23
2017-06-17T16:42:47.927Z,14.13
2017-06-17T16:45:14.132Z,10.20
2017-06-17T16:47:40.347Z,14.53
2017-06-17T16:50:06.572Z,13.27
2017-06-17T16:52:32.795Z,14.63
2017-06-17T16:54:58.991Z,21.10
2017-06-17T16:57:25.978Z,18.30
2017-06-17T16:59:52.232Z,12.77
2017-06-17T17:02:18.810Z,12.50
2017-06-17T17:04:45.772Z,11.50
2017-06-17T17:07:11.970Z,12.60
2017-06-17T17:09:38.887Z,16.70
2017-06-17T17:12:05.082Z,16.97
2017-06-17T17:14:31.257Z,12.40
2017-06-17T17:16:57.464Z,11.97
2017-06-17T17:19:23.649Z,16.70
2017-06-17T17:21:49.954Z,15.13
2017-06-17T17:24:16.898Z,17.23
2017-06-17T17:26:43.859Z,18.43
2017-06-17T17:29:14.071Z,17.67
2017-06-17T17:31:41.035Z,15.03
2017-06-17T17:34:07.210Z,12.53
2017-06-17T17:36:33.456Z,11.87
2017-06-17T17:39:00.052Z,14.67
2017-06-17T17:41:26.250Z,14.80
2017-06-17T17:43:54.087Z,15.70
2017-06-17T17:46:36.129Z,14.50
2017-06-17T17:49:04.096Z,13.47
2017-06-17T17:51:30.267Z,13.70
2017-06-17T17:53:56.476Z,13.07
2017-06-17T17:56:22.654Z,12.97
2017-06-17T17:58:49.759Z,16.57
2017-06-17T18:01:15.968Z,10.93
2017-06-17T18:03:42.169Z,13.83
2017-06-17T18:06:09.139Z,17.50
2017-06-17T18:08:35.306Z,13.90
2017-06-17T18:11:01.473Z,18.57
2017-06-17T18:13:27.716Z,14.17
2017-06-17T18:15:53.947Z,12.30
2017-06-17T18:18:20.135Z,15.97
2017-06-17T18:20:46.338Z,16.10
2017-06-17T18:23:12.560Z,11.70
2017-06-17T18:25:38.757Z,16.27
2017-06-17T18:28:05.734Z,17.33
2017-06-17T18:30:31.962Z,16.83
2017-06-17T18:32:58.127Z,16.60
2017-06-17T18:35:24.323Z,13.17
2017-06-17T18:37:50.502Z,17.67
2017-06-17T18:40:18.281Z,13.53
2017-06-17T18:42:45.221Z,12.67
2017-06-17T18:45:12.162Z,11.57
2017-06-17T18:47:39.129Z,15.40
2017-06-17T18:50:05.315Z,17.00
2017-06-17T18:52:31.564Z,13.37
2017-06-17T18:54:58.533Z,15.03
2017-06-17T18:57:24.770Z,15.90
2017-06-17T18:59:50.973Z,11.87
2017-06-17T19:02:17.955Z,12.77
2017-06-17T19:04:44.165Z,14.10
2017-06-17T19:07:10.411Z,12.30
2017-06-17T19:09:37.408Z,14.83
2017-06-17T19:12:03.662Z,13.63
2017-06-17T19:14:30.641Z,11.03
2017-06-17T19:16:56.807Z,16.40
2017-06-17T19:19:22.987Z,11.87
2017-06-17T19:21:49.188Z,13.57
2017-06-17T19:24:16.115Z,11.80
2017-06-17T19:26:42.322Z,21.60
2017-06-17T19:29:08.587Z,13.60
2017-06-17T19:31:35.512Z,10.97
2017-06-17T19:34:02.046Z,15.43
2017-06-17T19:36:28.356Z,17.47
2017-06-17T19:38:54.577Z,13.17
2017-06-17T19:41:20.779Z,14.63
2017-06-17T19:43:47.292Z,11.67
2017-06-17T19:46:14.435Z,19.60
2017-06-17T19:48:41.520Z,14.50
2017-06-17T19:51:07.873Z,14.77
2017-06-17T19:53:34.070Z,11.83
2017-06-17T19:56:00.394Z,16.67
2017-06-17T19:58:26.688Z,15.60
2017-06-17T20:00:52.987Z,13.90
2017-06-17T20:03:19.330Z,14.10
2017-06-17T20:05:45.672Z,14.40
2017-06-17T20:08:11.958Z,13.67
2017-06-17T20:10:38.181Z,14.77
2017-06-17T20:13:04.422Z,14.17
2017-06-17T20:15:31.539Z,16.13
2017-06-17T20:17:59.542Z,13.87
2017-06-17T20:20:25.935Z,13.57
2017-06-17T20:22:52.417Z,13.67
2017-06-17T20:25:18.869Z,13.70
2017-06-17T20:27:45.253Z,16.17
2017-06-17T20:30:12.408Z,14.00
2017-06-17T20:32:39.656Z,13.23
2017-06-17T20:35:06.771Z,11.63
2017-06-17T20:37:32.964Z,15.27
2017-06-17T20:39:59.143Z,13.50
2017-06-17T20:42:25.546Z,16.33
2017-06-17T20:44:51.871Z,12.70
2017-06-17T20:47:18.161Z,13.17
2017-06-17T20:49:46.083Z,15.47
2017-06-17T20:52:12.327Z,14.90
2017-06-17T20:54:38.769Z,15.50
2017-06-17T20:57:05.775Z,11.83
2017-06-17T20:59:32.147Z,12.57
2017-06-17T21:01:58.482Z,11.30
2017-06-17T21:04:24.799Z,13.87
2017-06-17T21:06:51.138Z,15.07
2017-06-17T21:09:17.322Z,14.63
2017-06-17T21:11:46.191Z,16.33
2017-06-17T21:14:12.427Z,13.10
2017-06-17T21:16:38.631Z,14.20
2017-06-17T21:19:05.582Z,12.47
2017-06-17T21:21:32.549Z,13.73
2017-06-17T21:23:58.792Z,14.03
2017-06-17T21:26:24.991Z,13.40
2017-06-17T21:28:51.979Z,17.20
2017-06-17T21:31:18.169Z,12.93
2017-06-17T21:33:44.343Z,13.27
2017-06-17T21:36:10.617Z,18.47
2017-06-17T21:38:37.522Z,17.80
2017-06-17T21:41:03.696Z,13.53
2017-06-17T21:43:30.887Z,14.60
2017-06-17T21:45:57.095Z,12.53
2017-06-17T21:48:23.335Z,15.30
2017-06-17T21:50:49.546Z,14.33
2017-06-17T21:53:15.747Z,16.43
2017-06-17T21:55:41.922Z,14.40
2017-06-17T21:58:08.146Z,15.67
2017-06-17T22:00:34.411Z,14.10
2017-06-17T22:03:00.632Z,14.47
2017-06-17T22:05:26.806Z,15.07
2017-06-17T22:07:53.791Z,14.47
2017-06-17T22:10:19.964Z,18.30
2017-06-17T22:12:46.147Z,15.63
2017-06-17T22:15:12.411Z,15.73
2017-06-17T22:17:38.584Z,13.73
2017-06-17T22:20:04.767Z,14.33
2017-06-17T22:22:30.961Z,15.60
2017-06-17T22:24:57.206Z,16.97
2017-06-17T22:27:23.378Z,17.90
2017-06-17T22:29:50.626Z,16.77
2017-06-17T22:32:17.546Z,14.87
2017-06-17T22:34:43.753Z,14.60
2017-06-17T22:37:10.015Z,12.80
2017-06-17T22:39:36.306Z,14.87
2017-06-17T22:42:02.539Z,14.67
2017-06-17T22:44:28.732Z,13.67
2017-06-17T22:46:55.686Z,14.13
2017-06-17T22:49:21.839Z,15.13
2017-06-17T22:51:48.025Z,16.37
2017-06-17T22:54:14.977Z,14.40
2017-06-17T22:56:41.906Z,13.10
2017-06-17T22:59:08.868Z,16.50
2017-06-17T23:01:37.504Z,14.70
2017-06-17T23:04:03.775Z,14.70
2017-06-17T23:06:30.722Z,18.87
2017-06-17T23:08:57.847Z,14.30
2017-06-17T23:11:24.200Z,13.63
2017-06-17T23:13:51.142Z,14.50
2017-06-17T23:16:18.066Z,17.37
2017-06-17T23:18:44.419Z,16.17
2017-06-17T23:21:11.378Z,15.90
2017-06-17T23:23:38.437Z,12.40
2017-06-17T23:26:04.752Z,12.27
2017-06-17T23:28:31.857Z,13.83
2017-06-17T23:30:59.248Z,18.23
2017-06-17T23:33:27.024Z,16.17
2017-06-17T23:35:53.972Z,12.70
2017-06-17T23:38:20.928Z,13.50
2017-06-17T23:40:48.116Z,15.80
2017-06-17T23:43:15.243Z,13.80
2017-06-17T23:45:41.448Z,15.80
2017-06-17T23:48:08.341Z,14.73
2017-06-17T23:50:34.602Z,14.10
2017-06-17T23:53:00.770Z,12.67
2017-06-17T23:55:26.948Z,13.93
2017-06-17T23:57:53.248Z,13.80
